Time;durP1;ratioP1;P1;durP2;ratioP2;P2;SDS_P1;SDS_P2;PMS_P1;PMS_P2;Temp;Humidity;BMP_temperature;BMP_pressure;BME280_temperature;BME280_humidity;BME280_pressure;Samples;Min_cycle;Max_cycle;Signal;HPM_P1;HPM_P2
2023/10/03 00:02:06;;;;;;;6.80;4.20;;;;;;;21.24;45.18;100438.38;5050668;28;20587;-67
2023/10/03 00:04:34;;;;;;;4.93;4.07;;;;;;;21.26;44.89;100430.84;5051310;28;20266;-66
2023/10/03 00:07:01;;;;;;;7.73;4.07;;;;;;;21.24;44.55;100435.69;5050821;28;20193;-69
2023/10/03 00:09:28;;;;;;;8.33;4.00;;;;;;;21.15;45.80;100439.81;5050854;28;20279;-66
2023/10/03 00:11:56;;;;;;;14.37;5.00;;;;;;;21.13;45.63;100433.00;5051095;28;20196;-69
2023/10/03 00:14:23;;;;;;;8.53;4.57;;;;;;;21.21;45.67;100441.56;5050627;28;20631;-68
2023/10/03 00:16:50;;;;;;;8.80;4.07;;;;;;;21.20;45.16;100423.72;5050857;28;20233;-68
2023/10/03 00:19:16;;;;;;;10.30;4.60;;;;;;;21.31;45.15;100435.53;5052808;28;20193;-68
2023/10/03 00:21:43;;;;;;;8.13;4.10;;;;;;;21.30;45.04;100433.88;5071267;28;20277;-67
2023/10/03 00:24:10;;;;;;;12.97;4.77;;;;;;;21.32;44.83;100438.00;5070809;28;20196;-68
2023/10/03 00:26:37;;;;;;;7.83;4.10;;;;;;;21.33;45.53;100434.22;5074331;28;20200;-68
2023/10/03 00:29:09;;;;;;;8.03;4.57;;;;;;;21.38;45.65;100434.31;5074111;28;20196;-68
2023/10/03 00:31:38;;;;;;;12.87;5.13;;;;;;;21.37;46.17;100432.66;5074385;28;20196;-68
2023/10/03 00:34:05;;;;;;;9.40;4.67;;;;;;;21.39;46.27;100438.63;5074209;28;20198;-68
2023/10/03 00:36:32;;;;;;;8.80;4.37;;;;;;;21.37;46.52;100429.97;5074100;28;20192;-68
2023/10/03 00:38:58;;;;;;;12.60;3.90;;;;;;;21.33;46.37;100427.97;5074692;28;20192;-68
2023/10/03 00:41:25;;;;;;;6.70;3.90;;;;;;;21.35;46.93;100432.06;5073937;28;20220;-68
2023/10/03 00:43:58;;;;;;;4.57;4.13;;;;;;;21.37;46.57;100435.38;5074300;28;20367;-68
2023/10/03 00:46:29;;;;;;;7.23;3.70;;;;;;;21.41;46.74;100433.00;5074117;28;20279;-68
2023/10/03 00:48:57;;;;;;;4.67;4.03;;;;;;;21.37;46.48;100429.97;5074118;28;20272;-69
2023/10/03 00:51:24;;;;;;;7.33;3.80;;;;;;;21.25;46.22;100422.97;5074242;28;20268;-69
2023/10/03 00:53:55;;;;;;;5.27;3.40;;;;;;;21.28;46.00;100431.44;5073893;28;20663;-67
2023/10/03 00:56:23;;;;;;;5.70;4.23;;;;;;;21.19;45.42;100424.75;5073908;28;20223;-68
2023/10/03 00:58:51;;;;;;;4.60;3.60;;;;;;;21.19;45.34;100427.44;5073949;28;20659;-68
2023/10/03 01:01:19;;;;;;;4.57;4.10;;;;;;;21.18;45.83;100435.78;5073906;28;20311;-69
2023/10/03 01:03:49;;;;;;;5.00;3.63;;;;;;;21.11;45.26;100430.53;5073494;28;20638;-68
2023/10/03 01:06:16;;;;;;;6.47;3.80;;;;;;;21.08;45.42;100431.03;5074018;28;20257;-69
2023/10/03 01:08:46;;;;;;;7.83;3.77;;;;;;;21.03;45.98;100432.81;5074168;28;20196;-68
2023/10/03 01:11:16;;;;;;;6.43;4.10;;;;;;;20.96;46.29;100432.13;5073394;28;20196;-67
2023/10/03 01:13:44;;;;;;;8.20;3.97;;;;;;;20.88;47.39;100436.00;5073983;28;20271;-68
2023/10/03 01:16:12;;;;;;;4.63;4.10;;;;;;;20.77;48.26;100434.16;5073291;28;20237;-68
2023/10/03 01:18:41;;;;;;;11.07;4.67;;;;;;;20.72;48.17;100428.66;5073678;28;20188;-68
2023/10/03 01:21:11;;;;;;;4.83;4.33;;;;;;;20.66;48.26;100426.09;5055912;28;20220;-68
2023/10/03 01:23:42;;;;;;;6.63;4.50;;;;;;;20.62;48.48;100428.44;5053579;28;20277;-68
2023/10/03 01:26:09;;;;;;;8.03;4.47;;;;;;;20.58;48.91;100421.06;5053836;28;20247;-68
2023/10/03 01:28:38;;;;;;;6.77;4.10;;;;;;;20.55;49.11;100425.06;5053421;28;20196;-68
2023/10/03 01:31:05;;;;;;;5.90;4.13;;;;;;;20.53;49.44;100421.75;5053005;28;20696;-68
2023/10/03 01:33:33;;;;;;;6.60;4.37;;;;;;;20.46;50.31;100426.50;5053303;28;20196;-68
2023/10/03 01:36:01;;;;;;;5.20;4.70;;;;;;;20.42;49.74;100423.44;5053458;28;20196;-68
2023/10/03 01:38:28;;;;;;;6.67;3.97;;;;;;;20.39;50.09;100420.41;5053138;28;20235;-68
2023/10/03 01:40:58;;;;;;;9.47;4.13;;;;;;;20.32;50.19;100419.69;5052893;28;20598;-67
2023/10/03 01:43:24;;;;;;;11.33;4.27;;;;;;;20.21;50.30;100420.50;5052964;28;20620;-67
2023/10/03 01:45:52;;;;;;;11.43;4.77;;;;;;;20.17;50.69;100422.03;5053045;28;20192;-68
2023/10/03 01:48:19;;;;;;;11.07;4.20;;;;;;;20.11;50.65;100417.59;5052944;28;20197;-68
2023/10/03 01:50:46;;;;;;;5.30;4.07;;;;;;;19.99;53.53;100422.97;5052896;28;20197;-68
2023/10/03 01:53:12;;;;;;;4.30;3.90;;;;;;;20.06;51.77;100426.34;5052996;28;20197;-68
2023/10/03 01:55:39;;;;;;;6.80;3.70;;;;;;;20.09;54.19;100419.69;5052729;28;20196;-68
2023/10/03 01:58:07;;;;;;;5.60;4.00;;;;;;;20.36;51.33;100420.88;5052957;28;20196;-68
2023/10/03 02:00:35;;;;;;;7.03;4.60;;;;;;;20.51;51.47;100419.31;5052439;28;20659;-68
2023/10/03 02:03:07;;;;;;;11.87;4.40;;;;;;;20.64;50.92;100423.63;5052703;28;20215;-68
2023/10/03 02:05:36;;;;;;;7.00;4.27;;;;;;;20.68;51.04;100422.09;5052659;28;20193;-68
2023/10/03 02:08:07;;;;;;;9.37;4.27;;;;;;;20.80;50.63;100427.47;5052812;28;20736;-68
2023/10/03 02:10:35;;;;;;;14.10;4.37;;;;;;;20.88;50.27;100433.31;5061103;28;20220;-67
2023/10/03 02:13:08;;;;;;;6.13;4.27;;;;;;;21.02;49.55;100436.59;5072416;28;20592;-67
2023/10/03 02:15:38;;;;;;;13.17;4.90;;;;;;;21.07;48.39;100434.78;5072428;28;20271;-68
2023/10/03 02:18:08;;;;;;;6.33;4.90;;;;;;;21.05;49.03;100428.81;5072815;28;20307;-68
2023/10/03 02:20:47;;;;;;;11.27;4.40;;;;;;;21.04;47.94;100435.28;5071892;28;20270;-68
2023/10/03 02:23:17;;;;;;;11.97;5.43;;;;;;;20.89;48.27;100443.06;5071834;28;20188;-68
2023/10/03 02:25:45;;;;;;;7.53;4.10;;;;;;;20.70;48.68;100438.88;5071917;28;20192;-69
2023/10/03 02:28:14;;;;;;;4.73;4.33;;;;;;;20.51;49.91;100435.50;5071397;28;20196;-68
2023/10/03 02:30:42;;;;;;;6.93;4.37;;;;;;;20.47;51.04;100430.84;5071641;28;20230;-67
2023/10/03 02:33:12;;;;;;;7.07;3.93;;;;;;;20.53;51.21;100433.41;5071840;28;20617;-67
2023/10/03 02:35:40;;;;;;;8.03;4.57;;;;;;;20.53;49.73;100444.19;5071961;28;20188;-67
2023/10/03 02:38:09;;;;;;;10.10;5.23;;;;;;;20.54;50.17;100436.91;5071681;28;20660;-68
2023/10/03 02:40:36;;;;;;;5.20;4.63;;;;;;;20.59;49.33;100445.94;5071866;28;20203;-67
2023/10/03 02:43:04;;;;;;;12.63;4.90;;;;;;;20.44;49.32;100450.19;5071703;28;20266;-67
2023/10/03 02:45:31;;;;;;;6.97;3.90;;;;;;;20.25;51.44;100451.38;5071843;28;20198;-67
2023/10/03 02:48:07;;;;;;;9.63;5.40;;;;;;;20.19;51.89;100425.34;5071417;28;20225;-68
2023/10/03 02:50:34;;;;;;;4.37;3.97;;;;;;;20.41;51.22;100439.84;5071973;28;20609;-68
2023/10/03 02:53:05;;;;;;;11.70;5.17;;;;;;;20.45;49.00;100446.44;5071478;28;20192;-67
2023/10/03 02:55:32;;;;;;;9.60;4.50;;;;;;;20.42;48.56;100446.91;5071451;28;20187;-67
2023/10/03 02:57:59;;;;;;;6.90;4.60;;;;;;;20.31;49.30;100455.84;5071637;28;20188;-68
2023/10/03 03:00:25;;;;;;;8.43;4.47;;;;;;;20.28;49.27;100456.31;5071901;28;20294;-68
2023/10/03 03:02:52;;;;;;;9.90;5.00;;;;;;;20.25;49.91;100456.75;5070728;28;20215;-68
2023/10/03 03:05:22;;;;;;;6.23;4.70;;;;;;;20.34;48.86;100460.78;5070600;28;20693;-68
2023/10/03 03:07:50;;;;;;;10.80;4.77;;;;;;;20.35;48.22;100452.41;5071176;28;20235;-68
2023/10/03 03:10:18;;;;;;;9.93;4.73;;;;;;;20.22;48.37;100468.06;5071116;28;20192;-68
2023/10/03 03:12:46;;;;;;;8.83;4.40;;;;;;;19.99;49.58;100462.59;5071208;28;20280;-68
2023/10/03 03:15:22;;;;;;;9.50;5.20;;;;;;;19.62;50.31;100456.56;5070788;28;20235;-68
2023/10/03 03:17:48;;;;;;;5.13;4.57;;;;;;;19.30;51.24;100451.66;5072038;28;20326;-69
2023/10/03 03:20:20;;;;;;;5.67;3.97;;;;;;;19.28;52.55;100449.19;5071314;28;20242;-69
2023/10/03 03:22:50;;;;;;;4.60;4.20;;;;;;;19.01;51.79;100415.56;5071841;28;20219;-69
2023/10/03 03:25:24;;;;;;;5.63;4.47;;;;;;;19.02;51.83;100451.38;5071619;28;20211;-69
2023/10/03 03:27:53;;;;;;;6.23;4.30;;;;;;;18.64;53.80;100445.44;5071326;28;20187;-69
2023/10/03 03:30:35;;;;;;;6.30;4.30;;;;;;;18.41;54.21;100445.28;5071515;28;20673;-69
2023/10/03 03:33:06;;;;;;;7.20;4.50;;;;;;;18.19;54.42;100442.19;5071604;28;20187;-70
2023/10/03 03:35:38;;;;;;;12.00;4.83;;;;;;;17.93;55.64;100445.09;5071378;28;20184;-69
2023/10/03 03:38:07;;;;;;;10.10;4.60;;;;;;;17.85;56.27;100444.59;5071066;28;20654;-69
2023/10/03 03:40:36;;;;;;;10.80;4.30;;;;;;;17.74;56.47;100446.13;5070745;28;20210;-69
2023/10/03 03:43:05;;;;;;;5.37;4.70;;;;;;;17.70;56.89;100452.13;5071164;28;20222;-69
2023/10/03 03:45:32;;;;;;;8.93;4.67;;;;;;;17.63;57.03;100443.28;5071036;28;20212;-69
2023/10/03 03:48:00;;;;;;;8.27;5.23;;;;;;;17.51;58.19;100439.69;5070688;28;20554;-69
2023/10/03 03:50:29;;;;;;;13.83;5.73;;;;;;;17.53;57.66;100419.63;5070586;28;20203;-69
2023/10/03 03:52:58;;;;;;;7.47;4.50;;;;;;;17.77;56.77;100444.84;5070383;28;20214;-69
2023/10/03 03:55:29;;;;;;;8.03;5.33;;;;;;;17.76;56.84;100443.22;5070571;28;20192;-69
2023/10/03 03:57:56;;;;;;;9.00;4.67;;;;;;;17.75;56.95;100445.06;5070925;28;20191;-69
2023/10/03 04:00:26;;;;;;;11.67;5.23;;;;;;;17.74;56.57;100443.44;5072195;28;20227;-70
2023/10/03 04:02:53;;;;;;;11.13;4.97;;;;;;;17.75;57.04;100442.38;5064249;28;20566;-69
2023/10/03 04:05:20;;;;;;;17.60;5.60;;;;;;;17.71;57.35;100437.66;5062927;28;20250;-68
2023/10/03 04:07:47;;;;;;;10.63;4.60;;;;;;;17.65;58.84;100441.22;5064979;28;20199;-69
2023/10/03 04:10:14;;;;;;;15.77;5.17;;;;;;;17.93;58.27;100442.41;5063808;28;20201;-69
2023/10/03 04:12:42;;;;;;;10.87;5.77;;;;;;;18.23;57.65;100442.56;5062487;28;20225;-69
2023/10/03 04:15:14;;;;;;;18.63;5.80;;;;;;;18.43;55.40;100443.22;5063761;28;20233;-69
2023/10/03 04:17:41;;;;;;;8.90;5.57;;;;;;;18.51;56.40;100445.59;5064336;28;20212;-71
2023/10/03 04:20:19;;;;;;;15.63;5.83;;;;;;;18.64;54.29;100448.16;5062611;28;20545;-70
2023/10/03 04:22:47;;;;;;;15.03;5.37;;;;;;;18.80;54.50;100445.69;5062545;28;20195;-69
2023/10/03 04:25:19;;;;;;;14.80;5.27;;;;;;;18.96;54.57;100452.31;5063339;28;20199;-70
2023/10/03 04:27:48;;;;;;;14.00;4.67;;;;;;;19.11;53.19;100445.47;5064900;28;20706;-69
2023/10/03 04:30:15;;;;;;;13.30;4.60;;;;;;;19.26;53.21;100451.31;5062873;28;20978;-69
2023/10/03 04:32:42;;;;;;;16.73;4.87;;;;;;;19.44;52.24;100458.53;5064497;28;20213;-69
2023/10/03 04:35:13;;;;;;;9.13;5.37;;;;;;;19.47;51.10;100456.19;5063473;28;20271;-69
2023/10/03 04:37:42;;;;;;;12.93;5.70;;;;;;;19.36;51.03;100451.56;5064368;28;20669;-69
2023/10/03 04:40:10;;;;;;;15.43;5.50;;;;;;;19.20;51.88;100435.19;5063550;28;20295;-69
2023/10/03 04:42:38;;;;;;;19.67;6.07;;;;;;;19.32;52.60;100454.97;5062378;28;20199;-70
2023/10/03 04:45:10;;;;;;;7.23;5.17;;;;;;;19.50;52.53;100462.97;5063990;28;20569;-69
2023/10/03 04:47:38;;;;;;;14.30;4.67;;;;;;;19.60;53.84;100463.25;5063751;28;20189;-69
2023/10/03 04:50:05;;;;;;;13.93;5.10;;;;;;;19.78;53.25;100465.84;5066666;28;20196;-69
2023/10/03 04:52:32;;;;;;;6.70;4.87;;;;;;;20.09;51.78;100462.84;5057627;28;20212;-69
2023/10/03 04:54:58;;;;;;;10.13;5.17;;;;;;;20.36;50.62;100469.44;5053100;28;20628;-70
2023/10/03 04:57:27;;;;;;;15.47;6.00;;;;;;;20.51;50.26;100467.91;5053209;28;20250;-69
2023/10/03 04:59:56;;;;;;;13.37;5.67;;;;;;;20.66;49.93;100463.91;5066947;28;20231;-68
2023/10/03 05:02:25;;;;;;;9.13;4.70;;;;;;;21.27;48.55;100478.41;5069545;28;20188;-67
2023/10/03 05:04:51;;;;;;;9.43;5.80;;;;;;;21.75;47.19;100484.22;5062262;28;20193;-69
2023/10/03 05:07:18;;;;;;;10.73;5.83;;;;;;;22.20;45.65;100484.13;5059519;28;20197;-67
2023/10/03 05:09:45;;;;;;;11.43;6.27;;;;;;;22.61;44.13;100484.50;5059462;28;20196;-68
2023/10/03 05:12:12;;;;;;;9.53;6.23;;;;;;;22.99;42.93;100479.03;5056608;28;20214;-66
2023/10/03 05:14:40;;;;;;;12.27;6.27;;;;;;;23.44;41.60;100486.91;5060273;28;20661;-66
2023/10/03 05:17:07;;;;;;;10.13;5.90;;;;;;;23.85;40.49;100484.31;5057115;28;20312;-68
2023/10/03 05:19:36;;;;;;;11.53;5.63;;;;;;;24.19;38.97;100485.72;5054519;28;20190;-67
2023/10/03 05:22:04;;;;;;;9.20;5.40;;;;;;;24.43;38.06;100486.94;5055546;28;20561;-66
2023/10/03 05:24:32;;;;;;;12.17;5.67;;;;;;;24.68;37.23;100500.75;5061734;28;20666;-67
2023/10/03 05:26:59;;;;;;;6.70;5.73;;;;;;;24.79;36.57;100505.13;5059327;28;20192;-67
2023/10/03 05:29:27;;;;;;;12.00;6.20;;;;;;;24.98;37.15;100510.13;5049438;28;20253;-68
2023/10/03 05:31:54;;;;;;;15.43;6.00;;;;;;;25.12;36.81;100511.28;5067576;28;20195;-66
2023/10/03 05:34:21;;;;;;;16.00;6.33;;;;;;;25.24;36.32;100509.13;5069325;28;20195;-67
2023/10/03 05:36:49;;;;;;;17.77;6.90;;;;;;;25.40;36.45;100510.84;5068193;28;20295;-69
2023/10/03 05:39:16;;;;;;;19.30;6.40;;;;;;;25.53;35.66;100518.50;5069219;28;20196;-70
2023/10/03 05:41:43;;;;;;;15.80;6.40;;;;;;;25.65;35.40;100517.19;5069107;28;20189;-66
2023/10/03 05:44:12;;;;;;;16.00;6.27;;;;;;;25.52;35.72;100516.88;5068440;28;20257;-66
2023/10/03 05:46:39;;;;;;;9.00;5.57;;;;;;;25.56;35.59;100528.88;5067549;28;20585;-67
2023/10/03 05:49:06;;;;;;;19.70;7.40;;;;;;;25.16;35.70;100523.25;5057614;28;20291;-64
2023/10/03 05:51:34;;;;;;;15.53;6.23;;;;;;;24.45;37.02;100528.28;5052952;28;20195;-67
2023/10/03 05:54:04;;;;;;;12.13;6.33;;;;;;;23.76;38.29;100534.72;5059118;28;20208;-66
2023/10/03 05:56:31;;;;;;;116.27;15.30;;;;;;;23.46;39.53;100530.88;5061059;28;20275;-65
2023/10/03 05:58:59;;;;;;;15.70;5.97;;;;;;;23.55;39.65;100541.00;5064146;28;20192;-65
2023/10/03 06:01:25;;;;;;;10.00;6.30;;;;;;;23.71;39.40;100541.97;5070033;28;20206;-66
2023/10/03 06:03:53;;;;;;;15.67;6.37;;;;;;;23.87;39.07;100541.06;5069604;28;20228;-66
2023/10/03 06:06:21;;;;;;;13.23;6.03;;;;;;;23.81;38.95;100555.66;5069461;28;20284;-67
2023/10/03 06:08:49;;;;;;;21.87;7.17;;;;;;;23.77;39.30;100539.06;5068716;28;20342;-66
2023/10/03 06:11:17;;;;;;;14.53;6.43;;;;;;;23.84;39.34;100547.81;5069122;28;20190;-66
2023/10/03 06:13:45;;;;;;;8.40;5.60;;;;;;;23.57;39.58;100546.19;5069522;28;20312;-66
2023/10/03 06:16:12;;;;;;;15.30;6.43;;;;;;;23.58;39.67;100543.22;5068748;28;20285;-66
2023/10/03 06:18:40;;;;;;;7.10;5.80;;;;;;;23.52;40.26;100538.00;5069702;28;20190;-65
2023/10/03 06:21:07;;;;;;;17.63;6.73;;;;;;;23.78;39.59;100548.84;5068872;28;20201;-65
2023/10/03 06:23:34;;;;;;;25.33;7.60;;;;;;;24.09;38.74;100550.00;5068466;28;20239;-69
2023/10/03 06:26:01;;;;;;;14.10;7.10;;;;;;;23.83;39.10;100551.63;5062580;28;20666;-66
2023/10/03 06:28:29;;;;;;;8.00;6.40;;;;;;;23.95;39.64;100549.59;5061263;28;20245;-66
2023/10/03 06:30:56;;;;;;;19.53;7.00;;;;;;;23.76;40.01;100545.56;5068207;28;20326;-66
2023/10/03 06:33:23;;;;;;;16.47;8.23;;;;;;;24.11;39.48;100559.53;5067620;28;20249;-67
2023/10/03 06:35:50;;;;;;;27.17;8.43;;;;;;;24.55;38.74;100551.97;5067935;28;20197;-66
2023/10/03 06:38:17;;;;;;;19.90;8.48;;;;;;;24.99;37.80;100562.34;5069018;28;20521;-66
2023/10/03 06:40:44;;;;;;;16.23;7.50;;;;;;;25.42;36.71;100568.53;5068667;28;20208;-68
2023/10/03 06:43:11;;;;;;;16.03;7.60;;;;;;;25.65;36.55;100560.72;5069786;28;20215;-67
2023/10/03 06:45:40;;;;;;;10.67;6.93;;;;;;;25.55;36.51;100560.69;5069242;28;20195;-67
2023/10/03 06:48:07;;;;;;;13.70;6.33;;;;;;;25.31;36.58;100566.88;5067281;28;20662;-66
2023/10/03 06:50:34;;;;;;;9.60;6.30;;;;;;;24.68;37.63;100555.09;5067387;28;20648;-68
2023/10/03 06:53:01;;;;;;;11.47;5.77;;;;;;;24.34;39.80;100563.78;5043889;28;20227;-67
2023/10/03 06:55:27;;;;;;;20.60;6.50;;;;;;;23.96;39.41;100559.38;5055278;28;20201;-68
2023/10/03 06:57:54;;;;;;;8.50;5.70;;;;;;;24.03;40.29;100562.69;5064217;28;20198;-69
2023/10/03 07:00:22;;;;;;;10.07;5.77;;;;;;;24.43;39.19;100557.59;5059552;28;20200;-67
2023/10/03 07:02:50;;;;;;;12.57;5.93;;;;;;;24.92;38.02;100566.38;5063514;28;20206;-67
2023/10/03 07:05:16;;;;;;;13.07;5.97;;;;;;;25.38;37.59;100556.53;5064018;28;20195;-66
2023/10/03 07:07:43;;;;;;;9.07;5.70;;;;;;;25.77;37.08;100568.66;5063920;28;20212;-68
2023/10/03 07:10:11;;;;;;;9.13;5.40;;;;;;;26.07;36.71;100568.72;5063119;28;20193;-68
2023/10/03 07:12:38;;;;;;;15.47;5.93;;;;;;;26.16;34.99;100573.38;5059436;28;20215;-68
2023/10/03 07:15:09;;;;;;;14.57;5.53;;;;;;;25.67;35.21;100563.16;5063940;28;20725;-66
2023/10/03 07:17:36;;;;;;;14.17;6.17;;;;;;;25.24;36.17;100555.38;5058136;28;20216;-67
2023/10/03 07:20:09;;;;;;;15.20;5.47;;;;;;;24.91;38.14;100551.97;5063909;28;20292;-66
2023/10/03 07:22:36;;;;;;;16.33;6.83;;;;;;;25.33;37.61;100562.81;5056242;28;20270;-68
2023/10/03 07:25:06;;;;;;;13.63;6.40;;;;;;;25.73;36.88;100556.66;5063456;28;20282;-66
2023/10/03 07:27:33;;;;;;;10.53;6.23;;;;;;;25.97;35.86;100564.06;5067187;28;20299;-66
2023/10/03 07:30:02;;;;;;;15.60;6.20;;;;;;;25.83;35.71;100562.09;5057402;28;20192;-67
2023/10/03 07:32:30;;;;;;;12.37;5.83;;;;;;;25.82;35.77;100566.75;5062270;28;20231;-68
2023/10/03 07:34:57;;;;;;;9.37;5.53;;;;;;;25.53;36.98;100557.44;5062808;28;20291;-65
2023/10/03 07:37:26;;;;;;;16.27;6.10;;;;;;;25.82;36.13;100555.03;5056428;28;20196;-70
2023/10/03 07:39:53;;;;;;;12.13;6.07;;;;;;;25.99;36.12;100563.81;5053699;28;20200;-68
2023/10/03 07:42:22;;;;;;;11.13;5.13;;;;;;;26.17;35.85;100549.66;5063268;28;20191;-68
2023/10/03 07:44:52;;;;;;;13.17;6.20;;;;;;;26.41;34.79;100559.72;5067215;28;20569;-62
2023/10/03 07:47:20;;;;;;;14.93;5.60;;;;;;;26.07;35.90;100552.38;5062744;28;20192;-64
2023/10/03 07:49:48;;;;;;;13.00;6.10;;;;;;;26.24;35.58;100547.47;5067488;28;20214;-64
2023/10/03 07:52:17;;;;;;;12.23;5.67;;;;;;;26.78;34.36;100554.81;5063131;28;20266;-65
2023/10/03 07:54:47;;;;;;;13.17;5.77;;;;;;;26.78;33.93;100559.47;5063715;28;20248;-64
2023/10/03 07:57:14;;;;;;;15.80;5.50;;;;;;;26.90;34.67;100546.34;5065529;28;20204;-65
2023/10/03 07:59:43;;;;;;;9.13;6.40;;;;;;;27.10;33.77;100559.88;5058233;28;20192;-65
2023/10/03 08:02:11;;;;;;;10.10;5.57;;;;;;;27.34;33.73;100560.91;5067788;28;20200;-64
2023/10/03 08:04:40;;;;;;;10.37;5.30;;;;;;;27.87;32.94;100554.66;5053525;28;20200;-65
2023/10/03 08:07:07;;;;;;;18.37;6.70;;;;;;;28.07;32.07;100557.22;5054205;28;20299;-65
2023/10/03 08:09:34;;;;;;;10.53;6.70;;;;;;;28.11;31.43;100544.63;5054313;28;20250;-64
2023/10/03 08:12:11;;;;;;;11.13;5.73;;;;;;;28.16;31.13;100550.06;5056766;28;20195;-66
2023/10/03 08:14:39;;;;;;;8.00;5.40;;;;;;;28.30;30.70;100546.38;5071184;28;20720;-64
2023/10/03 08:17:06;;;;;;;14.10;6.33;;;;;;;28.52;30.65;100545.94;5069345;28;20794;-63
2023/10/03 08:19:34;;;;;;;8.90;5.53;;;;;;;28.83;30.17;100547.28;5073409;28;20191;-64
2023/10/03 08:22:01;;;;;;;8.03;5.53;;;;;;;28.37;30.53;100546.03;5073049;28;20196;-63
2023/10/03 08:24:28;;;;;;;8.30;5.10;;;;;;;28.30;31.30;100540.91;5072758;28;20200;-65
2023/10/03 08:26:59;;;;;;;13.37;6.17;;;;;;;28.50;31.04;100542.69;5072903;28;20192;-65
2023/10/03 08:29:27;;;;;;;9.03;5.00;;;;;;;28.32;30.01;100543.34;5072902;28;20738;-62
2023/10/03 08:31:57;;;;;;;9.63;5.10;;;;;;;27.69;31.08;100541.63;5073097;28;20519;-64
2023/10/03 08:34:24;;;;;;;8.33;5.43;;;;;;;27.65;31.50;100546.03;5073661;28;20211;-63
2023/10/03 08:36:54;;;;;;;7.87;5.63;;;;;;;27.90;30.81;100544.00;5073818;28;20217;-63
2023/10/03 08:39:23;;;;;;;5.53;5.00;;;;;;;27.80;31.36;100535.81;5073760;28;20223;-63
2023/10/03 08:42:00;;;;;;;7.43;5.67;;;;;;;27.80;31.11;100533.09;5067464;28;20184;-65
2023/10/03 08:44:36;;;;;;;13.13;5.53;;;;;;;27.75;30.78;100526.84;5063685;28;20640;-64
2023/10/03 08:47:09;;;;;;;7.57;4.80;;;;;;;27.94;31.21;100536.03;5063884;28;20263;-64
2023/10/03 08:49:40;;;;;;;7.67;5.07;;;;;;;28.18;31.07;100537.72;5071069;28;20344;-66
2023/10/03 08:52:09;;;;;;;8.10;5.20;;;;;;;28.35;29.93;100524.50;5073420;28;20238;-67
2023/10/03 08:54:37;;;;;;;11.33;5.70;;;;;;;28.50;29.65;100523.56;5073392;28;20223;-64
2023/10/03 08:57:05;;;;;;;20.57;5.20;;;;;;;28.63;30.05;100523.66;5064038;28;20587;-66
2023/10/03 08:59:33;;;;;;;9.83;5.70;;;;;;;28.57;29.53;100524.00;5073453;28;20231;-66
2023/10/03 09:02:05;;;;;;;8.63;5.43;;;;;;;28.61;29.84;100514.94;5068440;28;20216;-65
2023/10/03 09:04:38;;;;;;;7.17;4.83;;;;;;;28.71;30.07;100505.84;5073533;28;20192;-66
2023/10/03 09:07:08;;;;;;;9.87;4.67;;;;;;;28.99;29.52;100505.78;5072807;28;20188;-65
2023/10/03 09:09:41;;;;;;;10.10;5.00;;;;;;;29.16;28.49;100510.78;5057027;28;20185;-67
2023/10/03 09:12:08;;;;;;;8.90;5.20;;;;;;;28.53;28.96;100512.84;5071173;28;20177;-69
2023/10/03 09:14:37;;;;;;;6.67;4.53;;;;;;;28.54;28.52;100508.22;5061511;28;20262;-68
2023/10/03 09:17:04;;;;;;;7.47;4.60;;;;;;;28.60;28.29;100507.84;5056790;28;20654;-65
2023/10/03 09:19:45;;;;;;;7.67;4.63;;;;;;;28.69;28.78;100491.63;5056775;28;20683;-67
2023/10/03 09:22:15;;;;;;;9.63;4.63;;;;;;;29.01;28.62;100505.50;5073268;28;20188;-67
2023/10/03 09:24:44;;;;;;;13.63;5.33;;;;;;;28.96;28.37;100506.34;5063938;28;20197;-67
2023/10/03 09:27:17;;;;;;;10.57;5.40;;;;;;;28.83;28.04;100507.03;5072104;28;20287;-68
2023/10/03 09:29:49;;;;;;;7.50;4.50;;;;;;;28.56;28.41;100498.59;5072518;28;20180;-67
2023/10/03 09:32:17;;;;;;;7.33;4.47;;;;;;;28.68;28.61;100493.56;5072763;28;20559;-68
2023/10/03 09:34:45;;;;;;;9.97;5.27;;;;;;;28.70;28.56;100490.50;5067779;28;20273;-66
2023/10/03 09:37:12;;;;;;;8.90;4.80;;;;;;;28.38;28.61;100493.03;5071199;28;20659;-70
2023/10/03 09:39:49;;;;;;;5.47;4.57;;;;;;;28.35;28.40;100496.31;5059630;28;20197;-67
2023/10/03 09:42:16;;;;;;;7.60;4.60;;;;;;;28.45;28.33;100507.19;5066080;28;20325;-68
2023/10/03 09:44:44;;;;;;;7.70;5.00;;;;;;;28.32;28.27;100483.22;5062882;28;20668;-70
2023/10/03 09:47:13;;;;;;;10.27;5.00;;;;;;;27.89;29.23;100484.16;5050873;28;20568;-69
2023/10/03 09:49:41;;;;;;;9.77;5.37;;;;;;;27.73;29.16;100477.94;5070812;28;20216;-71
2023/10/03 09:52:09;;;;;;;15.67;7.60;;;;;;;27.85;29.66;100477.66;5070025;28;20196;-71
2023/10/03 09:54:37;;;;;;;8.53;5.03;;;;;;;28.18;29.37;100471.34;5070888;28;20721;-68
2023/10/03 09:57:15;;;;;;;11.33;5.70;;;;;;;28.17;29.06;100469.72;5068546;28;20223;-67
2023/10/03 09:59:45;;;;;;;14.23;5.90;;;;;;;28.38;28.79;100462.94;5070800;28;20192;-69
2023/10/03 10:02:15;;;;;;;8.37;6.17;;;;;;;28.26;28.80;100465.25;5070699;28;20216;-70
2023/10/03 10:04:44;;;;;;;7.30;5.43;;;;;;;28.17;28.71;100467.00;5072175;28;20257;-68
2023/10/03 10:07:17;;;;;;;8.53;5.53;;;;;;;28.21;28.87;100462.56;5072089;28;20189;-69
2023/10/03 10:09:54;;;;;;;7.90;6.07;;;;;;;28.26;28.27;100463.31;5072280;28;20261;-70
2023/10/03 10:12:21;;;;;;;10.40;5.03;;;;;;;28.18;28.40;100457.69;5072004;28;20300;-69
2023/10/03 10:15:17;;;;;;;10.37;5.37;;;;;;;28.29;28.05;100456.47;5071886;28;20306;-69
2023/10/03 10:17:54;;;;;;;8.00;6.20;;;;;;;28.34;28.32;100448.22;5072003;28;20289;-68
2023/10/03 10:20:27;;;;;;;12.30;6.07;;;;;;;28.33;28.65;100446.56;5067000;28;20195;-71
2023/10/03 10:23:16;;;;;;;11.53;6.50;;;;;;;28.32;28.61;100434.03;5075520;28;20232;-69
2023/10/03 10:25:50;;;;;;;8.70;6.43;;;;;;;28.09;29.31;100426.63;5051056;28;20629;-68
2023/10/03 10:28:21;;;;;;;7.10;6.37;;;;;;;28.05;28.94;100428.31;5064031;28;20586;-70
2023/10/03 10:31:24;;;;;;;9.40;5.43;;;;;;;27.91;28.92;100428.16;5051008;28;20220;-69
2023/10/03 10:34:29;;;;;;;8.57;5.87;;;;;;;27.71;29.19;100419.25;5049242;28;20212;-69
2023/10/03 10:37:01;;;;;;;12.37;5.90;;;;;;;27.58;29.33;100425.38;5048111;28;20219;-69
2023/10/03 10:40:17;;;;;;;6.47;5.93;;;;;;;27.63;29.19;100415.25;5064582;28;20216;-69
2023/10/03 10:43:06;;;;;;;6.10;5.50;;;;;;;27.86;29.31;100420.00;5068345;28;20330;-70
2023/10/03 10:45:39;;;;;;;9.43;5.50;;;;;;;27.35;29.80;100420.63;5065001;28;20286;-72
2023/10/03 10:48:07;;;;;;;8.47;5.83;;;;;;;26.89;29.82;100391.97;5067858;28;20248;-72
2023/10/03 10:51:10;;;;;;;6.97;5.80;;;;;;;27.28;30.20;100401.03;5064313;28;20196;-69
2023/10/03 10:53:39;;;;;;;6.73;5.60;;;;;;;27.32;29.71;100407.56;5067379;28;20546;-70
2023/10/03 10:56:08;;;;;;;9.77;6.07;;;;;;;27.45;29.89;100396.00;5066661;28;20202;-70
2023/10/03 10:58:51;;;;;;;6.03;5.43;;;;;;;27.65;29.52;100393.13;5075064;28;20776;-70
2023/10/03 11:01:18;;;;;;;10.67;5.83;;;;;;;27.57;29.71;100380.88;5059116;28;20891;-71
2023/10/03 11:03:45;;;;;;;7.17;6.23;;;;;;;27.62;29.87;100382.75;5074893;28;20230;-71
2023/10/03 11:06:18;;;;;;;8.73;5.53;;;;;;;27.77;30.19;100382.63;5066549;28;20246;-68
2023/10/03 11:08:48;;;;;;;11.17;5.83;;;;;;;27.93;30.06;100376.75;5067546;28;20188;-64
2023/10/03 11:11:16;;;;;;;6.57;5.80;;;;;;;27.92;29.08;100382.50;5067109;28;20196;-65
2023/10/03 11:13:47;;;;;;;10.33;5.97;;;;;;;27.96;29.20;100378.09;5068771;28;20763;-64
2023/10/03 11:16:28;;;;;;;7.50;6.07;;;;;;;27.99;28.85;100380.25;5088368;28;20195;-64
2023/10/03 11:18:58;;;;;;;8.97;6.30;;;;;;;27.98;28.89;100373.97;5087086;28;20187;-68
2023/10/03 11:21:29;;;;;;;9.47;6.27;;;;;;;27.89;28.66;100366.72;5067698;28;20188;-66
2023/10/03 11:24:10;;;;;;;8.33;5.73;;;;;;;27.94;28.79;100362.03;5075794;28;20207;-64
2023/10/03 11:26:45;;;;;;;6.17;5.60;;;;;;;27.68;29.05;100346.13;5080920;28;20259;-66
2023/10/03 11:29:14;;;;;;;11.90;5.70;;;;;;;27.77;29.69;100344.41;5087885;28;20187;-63
2023/10/03 11:31:42;;;;;;;9.97;5.27;;;;;;;27.79;29.15;100353.94;5067361;28;20211;-64
2023/10/03 11:34:09;;;;;;;6.93;5.70;;;;;;;27.65;28.96;100346.69;5068447;28;20223;-64